sensor_id;sensor_type;location;lat;lon;timestamp;temperature;humidity
69464;DHT22;56665;41.106;16.688;2022-08-19T00:02:55;29.65;47.39
69464;DHT22;56665;41.106;16.688;2022-08-19T00:05:58;29.59;47.35
69464;DHT22;56665;41.106;16.688;2022-08-19T00:09:06;29.59;47.36
69464;DHT22;56665;41.106;16.688;2022-08-19T00:12:11;29.57;47.47
69464;DHT22;56665;41.106;16.688;2022-08-19T00:15:17;29.58;47.55
69464;DHT22;56665;41.106;16.688;2022-08-19T00:18:21;29.59;47.37
69464;DHT22;56665;41.106;16.688;2022-08-19T00:21:26;29.58;47.65
69464;DHT22;56665;41.106;16.688;2022-08-19T00:24:31;29.52;47.48
69464;DHT22;56665;41.106;16.688;2022-08-19T00:27:35;29.52;47.43
69464;DHT22;56665;41.106;16.688;2022-08-19T00:30:38;29.52;47.38
69464;DHT22;56665;41.106;16.688;2022-08-19T00:33:42;29.54;47.44
69464;DHT22;56665;41.106;16.688;2022-08-19T00:36:46;29.51;47.54
69464;DHT22;56665;41.106;16.688;2022-08-19T00:39:50;29.58;47.48
69464;DHT22;56665;41.106;16.688;2022-08-19T00:42:56;29.58;47.50
69464;DHT22;56665;41.106;16.688;2022-08-19T00:46:00;29.54;47.63
69464;DHT22;56665;41.106;16.688;2022-08-19T00:49:22;29.49;47.88
69464;DHT22;56665;41.106;16.688;2022-08-19T00:52:40;29.42;48.09
69464;DHT22;56665;41.106;16.688;2022-08-19T00:55:51;29.44;48.20
69464;DHT22;56665;41.106;16.688;2022-08-19T00:58:58;29.49;48.03
69464;DHT22;56665;41.106;16.688;2022-08-19T01:02:02;29.52;48.01
69464;DHT22;56665;41.106;16.688;2022-08-19T01:05:10;29.58;47.72
69464;DHT22;56665;41.106;16.688;2022-08-19T01:08:16;29.58;47.64
69464;DHT22;56665;41.106;16.688;2022-08-19T01:11:20;29.63;47.41
69464;DHT22;56665;41.106;16.688;2022-08-19T01:14:24;29.65;47.25
69464;DHT22;56665;41.106;16.688;2022-08-19T01:17:29;29.66;47.11
69464;DHT22;56665;41.106;16.688;2022-08-19T01:20:33;29.72;46.88
69464;DHT22;56665;41.106;16.688;2022-08-19T01:23:37;29.68;46.81
69464;DHT22;56665;41.106;16.688;2022-08-19T01:26:47;29.70;46.88
69464;DHT22;56665;41.106;16.688;2022-08-19T01:29:51;29.72;46.67
69464;DHT22;56665;41.106;16.688;2022-08-19T01:32:55;29.69;46.60
69464;DHT22;56665;41.106;16.688;2022-08-19T01:36:08;29.72;46.46
69464;DHT22;56665;41.106;16.688;2022-08-19T01:39:15;29.79;45.95
69464;DHT22;56665;41.106;16.688;2022-08-19T01:42:20;29.81;45.89
69464;DHT22;56665;41.106;16.688;2022-08-19T01:45:27;29.88;45.48
69464;DHT22;56665;41.106;16.688;2022-08-19T01:48:40;29.88;45.32
69464;DHT22;56665;41.106;16.688;2022-08-19T01:51:45;29.90;45.17
69464;DHT22;56665;41.106;16.688;2022-08-19T01:54:49;29.92;45.08
69464;DHT22;56665;41.106;16.688;2022-08-19T01:57:56;29.88;44.80
69464;DHT22;56665;41.106;16.688;2022-08-19T02:01:02;29.84;44.94
69464;DHT22;56665;41.106;16.688;2022-08-19T02:04:06;29.81;44.88
69464;DHT22;56665;41.106;16.688;2022-08-19T02:07:09;29.75;44.87
69464;DHT22;56665;41.106;16.688;2022-08-19T02:10:16;29.76;44.87
69464;DHT22;56665;41.106;16.688;2022-08-19T02:13:21;29.70;44.75
69464;DHT22;56665;41.106;16.688;2022-08-19T02:16:25;29.66;44.72
69464;DHT22;56665;41.106;16.688;2022-08-19T02:19:29;29.61;44.76
69464;DHT22;56665;41.106;16.688;2022-08-19T02:22:35;29.59;44.64
69464;DHT22;56665;41.106;16.688;2022-08-19T02:25:39;29.54;44.83
69464;DHT22;56665;41.106;16.688;2022-08-19T02:28:42;29.54;44.75
69464;DHT22;56665;41.106;16.688;2022-08-19T02:31:46;29.52;44.47
69464;DHT22;56665;41.106;16.688;2022-08-19T02:34:50;29.59;44.47
69464;DHT22;56665;41.106;16.688;2022-08-19T02:37:53;29.69;44.02
69464;DHT22;56665;41.106;16.688;2022-08-19T02:41:24;29.66;44.14
69464;DHT22;56665;41.106;16.688;2022-08-19T02:44:28;29.65;44.35
69464;DHT22;56665;41.106;16.688;2022-08-19T02:47:33;29.59;44.71
69464;DHT22;56665;41.106;16.688;2022-08-19T02:50:38;29.52;45.21
69464;DHT22;56665;41.106;16.688;2022-08-19T02:53:42;29.44;45.98
69464;DHT22;56665;41.106;16.688;2022-08-19T02:56:45;29.37;46.50
69464;DHT22;56665;41.106;16.688;2022-08-19T02:59:50;29.30;46.76
69464;DHT22;56665;41.106;16.688;2022-08-19T03:02:53;29.24;46.84
69464;DHT22;56665;41.106;16.688;2022-08-19T03:06:10;29.18;46.88
69464;DHT22;56665;41.106;16.688;2022-08-19T03:09:15;29.14;47.01
69464;DHT22;56665;41.106;16.688;2022-08-19T03:12:19;29.11;47.30
69464;DHT22;56665;41.106;16.688;2022-08-19T03:15:23;29.14;47.21
69464;DHT22;56665;41.106;16.688;2022-08-19T03:18:27;29.11;47.49
69464;DHT22;56665;41.106;16.688;2022-08-19T03:21:32;29.12;47.74
69464;DHT22;56665;41.106;16.688;2022-08-19T03:24:37;29.15;48.23
69464;DHT22;56665;41.106;16.688;2022-08-19T03:27:41;29.12;48.60
69464;DHT22;56665;41.106;16.688;2022-08-19T03:30:56;29.08;48.51
69464;DHT22;56665;41.106;16.688;2022-08-19T03:34:00;29.15;48.13
69464;DHT22;56665;41.106;16.688;2022-08-19T03:37:07;29.23;47.86
69464;DHT22;56665;41.106;16.688;2022-08-19T03:40:12;29.20;48.24
69464;DHT22;56665;41.106;16.688;2022-08-19T03:43:15;29.17;48.43
69464;DHT22;56665;41.106;16.688;2022-08-19T03:46:24;29.12;48.79
69464;DHT22;56665;41.106;16.688;2022-08-19T03:49:30;29.00;49.08
69464;DHT22;56665;41.106;16.688;2022-08-19T03:52:33;28.94;49.39
69464;DHT22;56665;41.106;16.688;2022-08-19T03:55:40;28.84;49.10
69464;DHT22;56665;41.106;16.688;2022-08-19T03:58:45;28.76;49.30
69464;DHT22;56665;41.106;16.688;2022-08-19T04:01:49;28.73;49.61
69464;DHT22;56665;41.106;16.688;2022-08-19T04:04:53;28.73;49.81
69464;DHT22;56665;41.106;16.688;2022-08-19T04:08:00;28.69;49.69
69464;DHT22;56665;41.106;16.688;2022-08-19T04:11:12;28.68;49.57
69464;DHT22;56665;41.106;16.688;2022-08-19T04:14:18;28.70;49.59
69464;DHT22;56665;41.106;16.688;2022-08-19T04:17:22;28.73;49.84
69464;DHT22;56665;41.106;16.688;2022-08-19T04:20:26;28.77;49.71
69464;DHT22;56665;41.106;16.688;2022-08-19T04:23:31;28.82;49.75
69464;DHT22;56665;41.106;16.688;2022-08-19T04:26:35;28.83;49.96
69464;DHT22;56665;41.106;16.688;2022-08-19T04:29:40;28.84;49.85
69464;DHT22;56665;41.106;16.688;2022-08-19T04:32:44;28.91;49.78
69464;DHT22;56665;41.106;16.688;2022-08-19T04:35:50;29.00;49.80
69464;DHT22;56665;41.106;16.688;2022-08-19T04:38:56;29.06;49.58
69464;DHT22;56665;41.106;16.688;2022-08-19T04:42:00;29.12;49.35
69464;DHT22;56665;41.106;16.688;2022-08-19T04:45:22;29.07;49.48
69464;DHT22;56665;41.106;16.688;2022-08-19T04:48:26;29.03;49.79
69464;DHT22;56665;41.106;16.688;2022-08-19T04:51:29;29.08;50.14
69464;DHT22;56665;41.106;16.688;2022-08-19T04:54:34;29.12;49.99
69464;DHT22;56665;41.106;16.688;2022-08-19T04:57:37;29.23;49.79
69464;DHT22;56665;41.106;16.688;2022-08-19T05:00:43;29.35;49.58
69464;DHT22;56665;41.106;16.688;2022-08-19T05:03:47;29.44;49.54
69464;DHT22;56665;41.106;16.688;2022-08-19T05:06:51;29.51;49.44
69464;DHT22;56665;41.106;16.688;2022-08-19T05:09:56;29.61;49.25
69464;DHT22;56665;41.106;16.688;2022-08-19T05:13:00;29.62;49.30
69464;DHT22;56665;41.106;16.688;2022-08-19T05:16:04;29.65;49.47
69464;DHT22;56665;41.106;16.688;2022-08-19T05:19:08;29.58;49.60
69464;DHT22;56665;41.106;16.688;2022-08-19T05:22:30;29.68;49.41
69464;DHT22;56665;41.106;16.688;2022-08-19T05:25:40;29.75;49.33
69464;DHT22;56665;41.106;16.688;2022-08-19T05:28:44;29.85;49.27
69464;DHT22;56665;41.106;16.688;2022-08-19T05:31:49;29.92;48.93
69464;DHT22;56665;41.106;16.688;2022-08-19T05:34:53;29.93;48.86
69464;DHT22;56665;41.106;16.688;2022-08-19T05:37:57;30.06;50.44
69464;DHT22;56665;41.106;16.688;2022-08-19T05:41:07;30.31;50.59
69464;DHT22;56665;41.106;16.688;2022-08-19T05:44:12;30.46;50.39
69464;DHT22;56665;41.106;16.688;2022-08-19T05:47:16;30.69;49.90
69464;DHT22;56665;41.106;16.688;2022-08-19T05:50:22;31.04;49.43
69464;DHT22;56665;41.106;16.688;2022-08-19T05:53:26;31.51;48.58
69464;DHT22;56665;41.106;16.688;2022-08-19T05:56:30;31.97;47.55
69464;DHT22;56665;41.106;16.688;2022-08-19T05:59:34;32.39;46.76
69464;DHT22;56665;41.106;16.688;2022-08-19T06:02:40;32.78;46.08
69464;DHT22;56665;41.106;16.688;2022-08-19T06:05:44;33.19;45.37
69464;DHT22;56665;41.106;16.688;2022-08-19T06:08:49;33.64;44.72
69464;DHT22;56665;41.106;16.688;2022-08-19T06:11:56;34.06;44.18
69464;DHT22;56665;41.106;16.688;2022-08-19T06:15:11;34.43;43.68
69464;DHT22;56665;41.106;16.688;2022-08-19T06:18:15;34.66;43.00
69464;DHT22;56665;41.106;16.688;2022-08-19T06:21:24;34.80;42.64
69464;DHT22;56665;41.106;16.688;2022-08-19T06:24:29;35.07;42.17
69464;DHT22;56665;41.106;16.688;2022-08-19T06:27:33;35.33;41.73
69464;DHT22;56665;41.106;16.688;2022-08-19T06:30:37;35.66;41.17
69464;DHT22;56665;41.106;16.688;2022-08-19T06:33:44;35.99;40.72
69464;DHT22;56665;41.106;16.688;2022-08-19T06:36:50;36.37;40.20
69464;DHT22;56665;41.106;16.688;2022-08-19T06:39:54;36.80;39.55
69464;DHT22;56665;41.106;16.688;2022-08-19T06:42:58;36.73;39.63
69464;DHT22;56665;41.106;16.688;2022-08-19T06:46:09;36.81;39.54
69464;DHT22;56665;41.106;16.688;2022-08-19T06:49:16;36.75;39.44
69464;DHT22;56665;41.106;16.688;2022-08-19T06:52:20;36.63;39.71
69464;DHT22;56665;41.106;16.688;2022-08-19T06:55:24;36.43;39.87
69464;DHT22;56665;41.106;16.688;2022-08-19T06:58:31;35.85;41.24
69464;DHT22;56665;41.106;16.688;2022-08-19T07:01:42;35.54;41.90
69464;DHT22;56665;41.106;16.688;2022-08-19T07:04:46;35.20;41.98
69464;DHT22;56665;41.106;16.688;2022-08-19T07:07:49;34.69;42.29
69464;DHT22;56665;41.106;16.688;2022-08-19T07:10:53;34.59;42.36
69464;DHT22;56665;41.106;16.688;2022-08-19T07:13:59;34.21;43.33
69464;DHT22;56665;41.106;16.688;2022-08-19T07:17:10;33.88;44.25
69464;DHT22;56665;41.106;16.688;2022-08-19T07:20:14;33.57;44.68
69464;DHT22;56665;41.106;16.688;2022-08-19T07:23:18;33.34;45.12
69464;DHT22;56665;41.106;16.688;2022-08-19T07:26:33;33.12;45.69
69464;DHT22;56665;41.106;16.688;2022-08-19T07:29:41;32.87;46.53
69464;DHT22;56665;41.106;16.688;2022-08-19T07:32:45;32.86;46.87
69464;DHT22;56665;41.106;16.688;2022-08-19T07:35:49;33.29;46.31
69464;DHT22;56665;41.106;16.688;2022-08-19T07:38:53;34.08;45.12
69464;DHT22;56665;41.106;16.688;2022-08-19T07:42:00;34.76;43.92
69464;DHT22;56665;41.106;16.688;2022-08-19T07:45:05;35.17;43.46
69464;DHT22;56665;41.106;16.688;2022-08-19T07:48:09;35.95;43.10
69464;DHT22;56665;41.106;16.688;2022-08-19T07:51:17;36.19;42.03
69464;DHT22;56665;41.106;16.688;2022-08-19T07:54:22;35.51;44.95
69464;DHT22;56665;41.106;16.688;2022-08-19T07:57:26;34.84;47.88
69464;DHT22;56665;41.106;16.688;2022-08-19T08:00:30;34.45;48.50
69464;DHT22;56665;41.106;16.688;2022-08-19T08:03:36;34.11;48.99
69464;DHT22;56665;41.106;16.688;2022-08-19T08:06:58;33.74;48.85
69464;DHT22;56665;41.106;16.688;2022-08-19T08:10:20;33.20;49.71
69464;DHT22;56665;41.106;16.688;2022-08-19T08:13:25;32.72;50.65
69464;DHT22;56665;41.106;16.688;2022-08-19T08:16:28;32.28;50.71
69464;DHT22;56665;41.106;16.688;2022-08-19T08:19:34;31.86;50.95
69464;DHT22;56665;41.106;16.688;2022-08-19T08:22:43;31.56;51.38
69464;DHT22;56665;41.106;16.688;2022-08-19T08:26:05;31.30;51.94
69464;DHT22;56665;41.106;16.688;2022-08-19T08:29:10;31.14;52.05
69464;DHT22;56665;41.106;16.688;2022-08-19T08:32:16;30.95;52.46
69464;DHT22;56665;41.106;16.688;2022-08-19T08:35:22;30.81;52.76
69464;DHT22;56665;41.106;16.688;2022-08-19T08:38:26;30.69;52.88
69464;DHT22;56665;41.106;16.688;2022-08-19T08:41:44;30.57;53.01
69464;DHT22;56665;41.106;16.688;2022-08-19T08:45:00;30.43;54.24
69464;DHT22;56665;41.106;16.688;2022-08-19T08:48:46;30.27;53.76
69464;DHT22;56665;41.106;16.688;2022-08-19T08:51:44;30.05;54.99
69464;DHT22;56665;41.106;16.688;2022-08-19T08:54:53;29.76;56.01
69464;DHT22;56665;41.106;16.688;2022-08-19T08:58:12;29.18;59.24
69464;DHT22;56665;41.106;16.688;2022-08-19T09:01:19;28.93;58.83
69464;DHT22;56665;41.106;16.688;2022-08-19T09:04:24;29.15;57.11
69464;DHT22;56665;41.106;16.688;2022-08-19T09:11:14;29.65;56.10
69464;DHT22;56665;41.106;16.688;2022-08-19T09:15:02;29.88;56.37
69464;DHT22;56665;41.106;16.688;2022-08-19T09:18:08;28.76;63.89
69464;DHT22;56665;41.106;16.688;2022-08-19T09:21:12;28.21;65.75
69464;DHT22;56665;41.106;16.688;2022-08-19T09:24:17;28.14;64.80
69464;DHT22;56665;41.106;16.688;2022-08-19T09:27:21;28.24;65.71
69464;DHT22;56665;41.106;16.688;2022-08-19T09:30:29;28.35;65.15
69464;DHT22;56665;41.106;16.688;2022-08-19T09:33:33;28.48;64.18
69464;DHT22;56665;41.106;16.688;2022-08-19T09:36:37;28.31;64.87
69464;DHT22;56665;41.106;16.688;2022-08-19T09:39:42;28.27;63.73
69464;DHT22;56665;41.106;16.688;2022-08-19T09:42:46;28.60;63.23
69464;DHT22;56665;41.106;16.688;2022-08-19T09:45:52;29.49;61.10
69464;DHT22;56665;41.106;16.688;2022-08-19T09:48:58;31.46;56.31
69464;DHT22;56665;41.106;16.688;2022-08-19T09:52:03;32.71;52.86
69464;DHT22;56665;41.106;16.688;2022-08-19T09:55:08;33.92;51.05
69464;DHT22;56665;41.106;16.688;2022-08-19T09:58:12;34.76;49.51
69464;DHT22;56665;41.106;16.688;2022-08-19T10:01:19;35.24;48.21
69464;DHT22;56665;41.106;16.688;2022-08-19T10:04:23;35.27;47.53
69464;DHT22;56665;41.106;16.688;2022-08-19T10:07:47;35.41;45.85
69464;DHT22;56665;41.106;16.688;2022-08-19T10:10:51;35.57;44.71
69464;DHT22;56665;41.106;16.688;2022-08-19T10:13:55;35.54;44.18
69464;DHT22;56665;41.106;16.688;2022-08-19T10:17:00;35.39;44.16
69464;DHT22;56665;41.106;16.688;2022-08-19T10:20:06;35.03;44.04
69464;DHT22;56665;41.106;16.688;2022-08-19T10:23:10;34.71;43.98
69464;DHT22;56665;41.106;16.688;2022-08-19T10:26:17;35.28;42.92
69464;DHT22;56665;41.106;16.688;2022-08-19T10:29:21;35.38;42.64
69464;DHT22;56665;41.106;16.688;2022-08-19T10:32:25;35.03;43.12
69464;DHT22;56665;41.106;16.688;2022-08-19T10:35:29;34.49;43.95
69464;DHT22;56665;41.106;16.688;2022-08-19T10:38:33;33.81;45.83
69464;DHT22;56665;41.106;16.688;2022-08-19T10:41:38;33.34;46.62
69464;DHT22;56665;41.106;16.688;2022-08-19T10:44:42;33.19;47.16
69464;DHT22;56665;41.106;16.688;2022-08-19T10:47:46;33.16;47.52
69464;DHT22;56665;41.106;16.688;2022-08-19T10:50:49;33.06;47.79
69464;DHT22;56665;41.106;16.688;2022-08-19T10:54:12;32.99;48.08
69464;DHT22;56665;41.106;16.688;2022-08-19T10:57:16;32.69;49.02
69464;DHT22;56665;41.106;16.688;2022-08-19T11:00:21;32.41;50.48
69464;DHT22;56665;41.106;16.688;2022-08-19T11:03:26;32.11;52.49
69464;DHT22;56665;41.106;16.688;2022-08-19T11:06:34;31.88;55.41
69464;DHT22;56665;41.106;16.688;2022-08-19T11:09:40;31.64;55.36
69464;DHT22;56665;41.106;16.688;2022-08-19T11:12:44;31.54;55.61
69464;DHT22;56665;41.106;16.688;2022-08-19T11:16:20;31.45;55.32
69464;DHT22;56665;41.106;16.688;2022-08-19T11:19:25;31.43;54.16
69464;DHT22;56665;41.106;16.688;2022-08-19T11:22:28;31.88;53.16
69464;DHT22;56665;41.106;16.688;2022-08-19T11:25:33;32.35;51.39
69464;DHT22;56665;41.106;16.688;2022-08-19T11:28:38;32.44;51.23
69464;DHT22;56665;41.106;16.688;2022-08-19T11:31:44;32.54;51.33
69464;DHT22;56665;41.106;16.688;2022-08-19T11:34:48;32.75;50.76
69464;DHT22;56665;41.106;16.688;2022-08-19T11:37:52;32.87;49.82
69464;DHT22;56665;41.106;16.688;2022-08-19T11:41:02;32.87;48.98
69464;DHT22;56665;41.106;16.688;2022-08-19T11:44:07;32.93;48.73
69464;DHT22;56665;41.106;16.688;2022-08-19T11:47:11;33.09;47.51
69464;DHT22;56665;41.106;16.688;2022-08-19T11:50:15;33.33;46.91
69464;DHT22;56665;41.106;16.688;2022-08-19T11:53:19;33.44;46.79
69464;DHT22;56665;41.106;16.688;2022-08-19T11:56:23;33.30;46.59
69464;DHT22;56665;41.106;16.688;2022-08-19T11:59:28;33.14;47.11
69464;DHT22;56665;41.106;16.688;2022-08-19T12:02:33;33.02;47.51
69464;DHT22;56665;41.106;16.688;2022-08-19T12:05:37;32.83;47.69
69464;DHT22;56665;41.106;16.688;2022-08-19T12:08:43;32.61;47.86
69464;DHT22;56665;41.106;16.688;2022-08-19T12:11:47;32.62;48.71
69464;DHT22;56665;41.106;16.688;2022-08-19T12:14:50;32.79;47.50
69464;DHT22;56665;41.106;16.688;2022-08-19T12:17:59;33.33;46.21
69464;DHT22;56665;41.106;16.688;2022-08-19T12:21:03;34.09;44.86
69464;DHT22;56665;41.106;16.688;2022-08-19T12:24:07;34.49;43.84
69464;DHT22;56665;41.106;16.688;2022-08-19T12:27:11;34.93;42.95
69464;DHT22;56665;41.106;16.688;2022-08-19T12:30:14;35.18;42.31
69464;DHT22;56665;41.106;16.688;2022-08-19T12:33:19;35.20;42.31
69464;DHT22;56665;41.106;16.688;2022-08-19T12:36:27;35.00;42.41
69464;DHT22;56665;41.106;16.688;2022-08-19T12:39:34;34.60;42.82
69464;DHT22;56665;41.106;16.688;2022-08-19T12:42:39;34.19;43.69
69464;DHT22;56665;41.106;16.688;2022-08-19T12:45:46;33.85;44.22
69464;DHT22;56665;41.106;16.688;2022-08-19T12:48:49;33.51;45.10
69464;DHT22;56665;41.106;16.688;2022-08-19T12:51:55;33.19;46.28
69464;DHT22;56665;41.106;16.688;2022-08-19T12:54:59;32.98;46.96
69464;DHT22;56665;41.106;16.688;2022-08-19T12:58:03;32.92;47.61
69464;DHT22;56665;41.106;16.688;2022-08-19T13:01:10;32.99;47.76
69464;DHT22;56665;41.106;16.688;2022-08-19T13:04:13;33.07;47.84
69464;DHT22;56665;41.106;16.688;2022-08-19T13:07:17;33.02;48.12
69464;DHT22;56665;41.106;16.688;2022-08-19T13:10:23;32.75;48.47
69464;DHT22;56665;41.106;16.688;2022-08-19T13:13:28;32.62;48.70
69464;DHT22;56665;41.106;16.688;2022-08-19T13:16:32;32.45;49.08
69464;DHT22;56665;41.106;16.688;2022-08-19T13:19:37;32.39;49.20
69464;DHT22;56665;41.106;16.688;2022-08-19T13:22:41;32.48;49.33
69464;DHT22;56665;41.106;16.688;2022-08-19T13:25:55;32.66;49.02
69464;DHT22;56665;41.106;16.688;2022-08-19T13:28:59;32.93;48.69
69464;DHT22;56665;41.106;16.688;2022-08-19T13:32:21;32.99;48.77
69464;DHT22;56665;41.106;16.688;2022-08-19T13:35:51;32.90;48.92
69464;DHT22;56665;41.106;16.688;2022-08-19T13:38:59;33.19;48.47
69464;DHT22;56665;41.106;16.688;2022-08-19T13:42:03;33.49;47.89
69464;DHT22;56665;41.106;16.688;2022-08-19T13:45:08;33.72;47.60
69464;DHT22;56665;41.106;16.688;2022-08-19T13:48:12;34.39;46.63
69464;DHT22;56665;41.106;16.688;2022-08-19T13:51:17;35.18;46.10
69464;DHT22;56665;41.106;16.688;2022-08-19T13:54:20;35.30;47.46
69464;DHT22;56665;41.106;16.688;2022-08-19T13:57:25;35.11;48.12
69464;DHT22;56665;41.106;16.688;2022-08-19T14:00:33;35.47;48.10
69464;DHT22;56665;41.106;16.688;2022-08-19T14:03:37;35.49;48.02
69464;DHT22;56665;41.106;16.688;2022-08-19T14:06:41;35.66;47.43
69464;DHT22;56665;41.106;16.688;2022-08-19T14:09:45;35.57;47.55
69464;DHT22;56665;41.106;16.688;2022-08-19T14:12:52;35.20;48.20
69464;DHT22;56665;41.106;16.688;2022-08-19T14:15:56;34.38;49.82
69464;DHT22;56665;41.106;16.688;2022-08-19T14:19:01;33.97;50.95
69464;DHT22;56665;41.106;16.688;2022-08-19T14:22:05;33.99;51.48
69464;DHT22;56665;41.106;16.688;2022-08-19T14:25:11;34.02;51.38
69464;DHT22;56665;41.106;16.688;2022-08-19T14:28:15;33.91;51.54
69464;DHT22;56665;41.106;16.688;2022-08-19T14:31:20;33.74;51.91
69464;DHT22;56665;41.106;16.688;2022-08-19T14:34:26;33.77;52.19
69464;DHT22;56665;41.106;16.688;2022-08-19T14:37:29;33.92;52.42
69464;DHT22;56665;41.106;16.688;2022-08-19T14:40:33;34.31;51.32
69464;DHT22;56665;41.106;16.688;2022-08-19T14:43:38;34.38;51.28
69464;DHT22;56665;41.106;16.688;2022-08-19T14:46:41;34.31;51.62
69464;DHT22;56665;41.106;16.688;2022-08-19T14:49:45;34.60;51.38
69464;DHT22;56665;41.106;16.688;2022-08-19T14:52:41;34.57;51.84
69464;DHT22;56665;41.106;16.688;2022-08-19T14:55:45;34.40;52.36
69464;DHT22;56665;41.106;16.688;2022-08-19T14:58:49;34.29;52.14
69464;DHT22;56665;41.106;16.688;2022-08-19T15:01:55;34.22;52.56
69464;DHT22;56665;41.106;16.688;2022-08-19T15:04:59;34.32;52.62
69464;DHT22;56665;41.106;16.688;2022-08-19T15:08:04;34.21;52.65
69464;DHT22;56665;41.106;16.688;2022-08-19T15:11:13;34.38;52.53
69464;DHT22;56665;41.106;16.688;2022-08-19T15:14:18;34.48;52.13
69464;DHT22;56665;41.106;16.688;2022-08-19T15:17:23;34.55;52.14
69464;DHT22;56665;41.106;16.688;2022-08-19T15:20:28;34.46;51.91
69464;DHT22;56665;41.106;16.688;2022-08-19T15:23:33;34.55;52.47
69464;DHT22;56665;41.106;16.688;2022-08-19T15:26:36;34.59;52.25
69464;DHT22;56665;41.106;16.688;2022-08-19T15:29:40;34.71;51.76
69464;DHT22;56665;41.106;16.688;2022-08-19T15:32:44;34.77;51.72
69464;DHT22;56665;41.106;16.688;2022-08-19T15:35:48;34.67;51.70
69464;DHT22;56665;41.106;16.688;2022-08-19T15:38:55;34.45;51.99
69464;DHT22;56665;41.106;16.688;2022-08-19T15:41:59;34.08;52.15
69464;DHT22;56665;41.106;16.688;2022-08-19T15:45:04;33.68;53.55
69464;DHT22;56665;41.106;16.688;2022-08-19T15:48:08;33.37;54.20
69464;DHT22;56665;41.106;16.688;2022-08-19T15:51:12;33.16;54.67
69464;DHT22;56665;41.106;16.688;2022-08-19T15:54:19;33.00;54.88
69464;DHT22;56665;41.106;16.688;2022-08-19T15:57:23;32.89;55.58
69464;DHT22;56665;41.106;16.688;2022-08-19T16:00:27;32.78;55.80
69464;DHT22;56665;41.106;16.688;2022-08-19T16:03:51;32.71;55.92
69464;DHT22;56665;41.106;16.688;2022-08-19T16:07:14;32.78;55.87
69464;DHT22;56665;41.106;16.688;2022-08-19T16:10:19;32.83;55.79
69464;DHT22;56665;41.106;16.688;2022-08-19T16:13:22;33.06;55.13
69464;DHT22;56665;41.106;16.688;2022-08-19T16:16:30;33.33;54.40
69464;DHT22;56665;41.106;16.688;2022-08-19T16:19:34;33.49;54.02
69464;DHT22;56665;41.106;16.688;2022-08-19T16:22:39;33.85;52.99
69464;DHT22;56665;41.106;16.688;2022-08-19T16:25:42;33.94;52.72
69464;DHT22;56665;41.106;16.688;2022-08-19T16:28:46;33.91;52.60
69464;DHT22;56665;41.106;16.688;2022-08-19T16:31:51;33.85;52.30
69464;DHT22;56665;41.106;16.688;2022-08-19T16:34:56;33.81;52.66
69464;DHT22;56665;41.106;16.688;2022-08-19T16:38:00;33.64;52.92
69464;DHT22;56665;41.106;16.688;2022-08-19T16:41:05;33.41;53.11
69464;DHT22;56665;41.106;16.688;2022-08-19T16:44:10;33.26;53.02
69464;DHT22;56665;41.106;16.688;2022-08-19T16:47:14;32.96;53.31
69464;DHT22;56665;41.106;16.688;2022-08-19T16:50:20;32.80;53.75
69464;DHT22;56665;41.106;16.688;2022-08-19T16:53:26;32.66;54.19
69464;DHT22;56665;41.106;16.688;2022-08-19T16:56:31;32.44;54.58
69464;DHT22;56665;41.106;16.688;2022-08-19T16:59:35;32.20;54.80
69464;DHT22;56665;41.106;16.688;2022-08-19T17:02:40;31.98;54.75
69464;DHT22;56665;41.106;16.688;2022-08-19T17:05:46;31.78;55.04
69464;DHT22;56665;41.106;16.688;2022-08-19T17:08:52;31.57;55.13
69464;DHT22;56665;41.106;16.688;2022-08-19T17:11:57;31.47;54.95
69464;DHT22;56665;41.106;16.688;2022-08-19T17:15:02;31.36;54.90
69464;DHT22;56665;41.106;16.688;2022-08-19T17:18:09;31.30;55.17
69464;DHT22;56665;41.106;16.688;2022-08-19T17:21:14;31.14;56.01
69464;DHT22;56665;41.106;16.688;2022-08-19T17:24:18;31.06;56.26
69464;DHT22;56665;41.106;16.688;2022-08-19T17:27:22;30.92;56.83
69464;DHT22;56665;41.106;16.688;2022-08-19T17:30:26;30.78;57.75
69464;DHT22;56665;41.106;16.688;2022-08-19T17:33:30;30.43;62.93
69464;DHT22;56665;41.106;16.688;2022-08-19T17:36:34;30.16;64.46
69464;DHT22;56665;41.106;16.688;2022-08-19T17:39:37;30.02;65.80
69464;DHT22;56665;41.106;16.688;2022-08-19T17:42:43;29.73;67.70
69464;DHT22;56665;41.106;16.688;2022-08-19T17:45:47;29.07;70.21
69464;DHT22;56665;41.106;16.688;2022-08-19T17:48:51;28.91;70.59
69464;DHT22;56665;41.106;16.688;2022-08-19T17:51:59;28.59;72.03
69464;DHT22;56665;41.106;16.688;2022-08-19T17:55:05;28.49;72.49
69464;DHT22;56665;41.106;16.688;2022-08-19T17:58:09;28.49;72.77
69464;DHT22;56665;41.106;16.688;2022-08-19T18:01:13;28.36;72.97
69464;DHT22;56665;41.106;16.688;2022-08-19T18:04:17;28.33;73.05
69464;DHT22;56665;41.106;16.688;2022-08-19T18:07:22;28.33;72.87
69464;DHT22;56665;41.106;16.688;2022-08-19T18:10:29;28.27;72.81
69464;DHT22;56665;41.106;16.688;2022-08-19T18:13:34;28.21;72.75
69464;DHT22;56665;41.106;16.688;2022-08-19T18:16:38;28.21;72.04
69464;DHT22;56665;41.106;16.688;2022-08-19T18:19:42;28.24;70.54
69464;DHT22;56665;41.106;16.688;2022-08-19T18:22:48;28.29;66.87
69464;DHT22;56665;41.106;16.688;2022-08-19T18:25:51;28.35;65.84
69464;DHT22;56665;41.106;16.688;2022-08-19T18:28:55;28.43;63.29
69464;DHT22;56665;41.106;16.688;2022-08-19T18:31:59;28.50;61.26
69464;DHT22;56665;41.106;16.688;2022-08-19T18:35:08;28.55;57.19
69464;DHT22;56665;41.106;16.688;2022-08-19T18:38:15;28.56;57.02
69464;DHT22;56665;41.106;16.688;2022-08-19T18:41:38;28.60;54.20
69464;DHT22;56665;41.106;16.688;2022-08-19T18:45:00;28.63;51.19
69464;DHT22;56665;41.106;16.688;2022-08-19T18:48:23;28.68;47.89
69464;DHT22;56665;41.106;16.688;2022-08-19T18:51:45;28.76;45.26
69464;DHT22;56665;41.106;16.688;2022-08-19T18:54:51;28.77;44.83
69464;DHT22;56665;41.106;16.688;2022-08-19T18:57:55;28.80;42.26
69464;DHT22;56665;41.106;16.688;2022-08-19T19:01:12;28.79;44.29
69464;DHT22;56665;41.106;16.688;2022-08-19T19:04:19;28.73;42.34
69464;DHT22;56665;41.106;16.688;2022-08-19T19:07:23;28.76;41.63
69464;DHT22;56665;41.106;16.688;2022-08-19T19:10:28;28.75;41.16
69464;DHT22;56665;41.106;16.688;2022-08-19T19:13:33;28.70;41.86
69464;DHT22;56665;41.106;16.688;2022-08-19T19:16:39;28.65;40.81
69464;DHT22;56665;41.106;16.688;2022-08-19T19:19:43;28.63;39.81
69464;DHT22;56665;41.106;16.688;2022-08-19T19:22:48;28.55;40.10